sensor_id;sensor_type;location;lat;lon;timestamp;P1;durP1;ratioP1;P2;durP2;ratioP2
20423;SDS011;10371;49.042;8.002;2024-01-07T00:00:49;5.00;;;4.60;;
20423;SDS011;10371;49.042;8.002;2024-01-07T00:01:50;5.47;;;4.77;;
20423;SDS011;10371;49.042;8.002;2024-01-07T00:02:50;5.37;;;4.87;;
20423;SDS011;10371;49.042;8.002;2024-01-07T00:03:51;5.70;;;5.00;;
20423;SDS011;10371;49.042;8.002;2024-01-07T00:04:52;5.47;;;4.97;;
20423;SDS011;10371;49.042;8.002;2024-01-07T00:05:52;5.40;;;4.97;;
20423;SDS011;10371;49.042;8.002;2024-01-07T00:06:52;5.47;;;4.97;;
20423;SDS011;10371;49.042;8.002;2024-01-07T00:07:52;5.33;;;4.83;;
20423;SDS011;10371;49.042;8.002;2024-01-07T00:08:53;5.50;;;5.00;;
20423;SDS011;10371;49.042;8.002;2024-01-07T00:09:53;5.60;;;5.10;;
20423;SDS011;10371;49.042;8.002;2024-01-07T00:10:54;5.60;;;5.10;;
20423;SDS011;10371;49.042;8.002;2024-01-07T00:11:54;5.77;;;5.17;;
20423;SDS011;10371;49.042;8.002;2024-01-07T00:12:54;5.60;;;5.10;;
20423;SDS011;10371;49.042;8.002;2024-01-07T00:13:54;5.40;;;4.90;;
20423;SDS011;10371;49.042;8.002;2024-01-07T00:14:55;5.63;;;5.13;;
20423;SDS011;10371;49.042;8.002;2024-01-07T00:15:55;5.53;;;5.03;;
20423;SDS011;10371;49.042;8.002;2024-01-07T00:16:55;5.13;;;4.67;;
20423;SDS011;10371;49.042;8.002;2024-01-07T00:17:55;5.33;;;4.83;;
20423;SDS011;10371;49.042;8.002;2024-01-07T00:18:56;5.33;;;4.83;;
20423;SDS011;10371;49.042;8.002;2024-01-07T00:19:56;5.33;;;4.93;;
20423;SDS011;10371;49.042;8.002;2024-01-07T00:20:56;5.73;;;5.13;;
20423;SDS011;10371;49.042;8.002;2024-01-07T00:21:57;5.50;;;5.00;;
20423;SDS011;10371;49.042;8.002;2024-01-07T00:22:57;5.53;;;5.03;;
20423;SDS011;10371;49.042;8.002;2024-01-07T00:23:58;5.73;;;5.13;;
20423;SDS011;10371;49.042;8.002;2024-01-07T00:24:58;5.67;;;4.90;;
20423;SDS011;10371;49.042;8.002;2024-01-07T00:25:58;4.93;;;4.53;;
20423;SDS011;10371;49.042;8.002;2024-01-07T00:26:58;5.97;;;5.40;;
20423;SDS011;10371;49.042;8.002;2024-01-07T00:27:59;5.03;;;4.63;;
20423;SDS011;10371;49.042;8.002;2024-01-07T00:29:00;5.20;;;4.70;;
20423;SDS011;10371;49.042;8.002;2024-01-07T00:30:00;5.50;;;5.00;;
20423;SDS011;10371;49.042;8.002;2024-01-07T00:31:00;5.30;;;4.77;;
20423;SDS011;10371;49.042;8.002;2024-01-07T00:32:01;5.07;;;4.67;;
20423;SDS011;10371;49.042;8.002;2024-01-07T00:33:02;5.20;;;4.70;;
20423;SDS011;10371;49.042;8.002;2024-01-07T00:34:02;6.33;;;5.57;;
20423;SDS011;10371;49.042;8.002;2024-01-07T00:35:02;5.40;;;4.90;;
20423;SDS011;10371;49.042;8.002;2024-01-07T00:36:03;5.20;;;4.70;;
20423;SDS011;10371;49.042;8.002;2024-01-07T00:37:03;5.60;;;5.10;;
20423;SDS011;10371;49.042;8.002;2024-01-07T00:38:04;5.70;;;5.20;;
20423;SDS011;10371;49.042;8.002;2024-01-07T00:39:04;5.67;;;4.87;;
20423;SDS011;10371;49.042;8.002;2024-01-07T00:40:06;5.70;;;5.10;;
20423;SDS011;10371;49.042;8.002;2024-01-07T00:41:07;5.23;;;4.80;;
20423;SDS011;10371;49.042;8.002;2024-01-07T00:42:07;4.80;;;4.40;;
20423;SDS011;10371;49.042;8.002;2024-01-07T00:43:07;5.33;;;4.83;;
20423;SDS011;10371;49.042;8.002;2024-01-07T00:44:07;5.17;;;4.67;;
20423;SDS011;10371;49.042;8.002;2024-01-07T00:45:08;4.70;;;4.30;;
20423;SDS011;10371;49.042;8.002;2024-01-07T00:46:09;5.20;;;4.70;;
20423;SDS011;10371;49.042;8.002;2024-01-07T00:47:09;5.40;;;4.90;;
20423;SDS011;10371;49.042;8.002;2024-01-07T00:48:09;4.97;;;4.47;;
20423;SDS011;10371;49.042;8.002;2024-01-07T00:49:09;4.67;;;4.27;;
20423;SDS011;10371;49.042;8.002;2024-01-07T00:50:10;5.30;;;4.70;;
20423;SDS011;10371;49.042;8.002;2024-01-07T00:51:10;5.43;;;4.93;;
20423;SDS011;10371;49.042;8.002;2024-01-07T00:52:10;5.50;;;4.60;;
20423;SDS011;10371;49.042;8.002;2024-01-07T00:53:11;5.20;;;4.80;;
20423;SDS011;10371;49.042;8.002;2024-01-07T00:54:11;5.20;;;4.80;;
20423;SDS011;10371;49.042;8.002;2024-01-07T00:55:11;5.20;;;4.70;;
20423;SDS011;10371;49.042;8.002;2024-01-07T00:56:11;5.23;;;4.73;;
20423;SDS011;10371;49.042;8.002;2024-01-07T00:57:12;5.80;;;5.20;;
20423;SDS011;10371;49.042;8.002;2024-01-07T00:58:12;5.57;;;5.07;;
20423;SDS011;10371;49.042;8.002;2024-01-07T00:59:12;5.63;;;5.13;;
20423;SDS011;10371;49.042;8.002;2024-01-07T01:00:13;5.37;;;4.87;;
20423;SDS011;10371;49.042;8.002;2024-01-07T01:01:13;5.67;;;5.17;;
20423;SDS011;10371;49.042;8.002;2024-01-07T01:02:13;5.63;;;5.03;;
20423;SDS011;10371;49.042;8.002;2024-01-07T01:03:14;5.20;;;4.70;;
20423;SDS011;10371;49.042;8.002;2024-01-07T01:04:14;4.63;;;4.23;;
20423;SDS011;10371;49.042;8.002;2024-01-07T01:05:14;4.97;;;4.57;;
20423;SDS011;10371;49.042;8.002;2024-01-07T01:06:15;5.33;;;4.80;;
20423;SDS011;10371;49.042;8.002;2024-01-07T01:07:16;5.13;;;4.67;;
20423;SDS011;10371;49.042;8.002;2024-01-07T01:08:16;5.67;;;5.17;;
20423;SDS011;10371;49.042;8.002;2024-01-07T01:09:16;5.13;;;4.63;;
20423;SDS011;10371;49.042;8.002;2024-01-07T01:10:17;5.80;;;5.00;;
20423;SDS011;10371;49.042;8.002;2024-01-07T01:11:17;5.40;;;4.97;;
20423;SDS011;10371;49.042;8.002;2024-01-07T01:12:18;5.57;;;5.00;;
20423;SDS011;10371;49.042;8.002;2024-01-07T01:13:18;5.50;;;5.00;;
20423;SDS011;10371;49.042;8.002;2024-01-07T01:14:18;5.93;;;5.43;;
20423;SDS011;10371;49.042;8.002;2024-01-07T01:15:18;7.00;;;6.17;;
20423;SDS011;10371;49.042;8.002;2024-01-07T01:16:19;5.77;;;5.27;;
20423;SDS011;10371;49.042;8.002;2024-01-07T01:17:19;5.43;;;4.93;;
20423;SDS011;10371;49.042;8.002;2024-01-07T01:18:19;5.77;;;5.27;;
20423;SDS011;10371;49.042;8.002;2024-01-07T01:19:20;6.23;;;5.63;;
20423;SDS011;10371;49.042;8.002;2024-01-07T01:20:20;6.10;;;5.50;;
20423;SDS011;10371;49.042;8.002;2024-01-07T01:21:20;6.50;;;5.70;;
20423;SDS011;10371;49.042;8.002;2024-01-07T01:22:21;6.43;;;5.83;;
20423;SDS011;10371;49.042;8.002;2024-01-07T01:23:21;6.77;;;6.07;;
20423;SDS011;10371;49.042;8.002;2024-01-07T01:24:21;5.70;;;5.20;;
20423;SDS011;10371;49.042;8.002;2024-01-07T01:25:21;6.10;;;5.50;;
20423;SDS011;10371;49.042;8.002;2024-01-07T01:26:22;6.27;;;5.67;;
20423;SDS011;10371;49.042;8.002;2024-01-07T01:27:22;6.33;;;5.80;;
20423;SDS011;10371;49.042;8.002;2024-01-07T01:28:22;6.43;;;5.83;;
20423;SDS011;10371;49.042;8.002;2024-01-07T01:29:22;6.23;;;5.63;;
20423;SDS011;10371;49.042;8.002;2024-01-07T01:30:23;7.00;;;6.03;;
20423;SDS011;10371;49.042;8.002;2024-01-07T01:31:23;5.90;;;5.30;;
20423;SDS011;10371;49.042;8.002;2024-01-07T01:32:23;6.83;;;6.23;;
20423;SDS011;10371;49.042;8.002;2024-01-07T01:33:24;6.50;;;5.90;;
20423;SDS011;10371;49.042;8.002;2024-01-07T01:34:24;6.23;;;5.63;;
20423;SDS011;10371;49.042;8.002;2024-01-07T01:35:24;6.47;;;5.87;;
20423;SDS011;10371;49.042;8.002;2024-01-07T01:36:24;5.90;;;5.37;;
20423;SDS011;10371;49.042;8.002;2024-01-07T01:37:25;7.10;;;6.33;;
20423;SDS011;10371;49.042;8.002;2024-01-07T01:38:25;6.70;;;6.10;;
20423;SDS011;10371;49.042;8.002;2024-01-07T01:39:25;6.13;;;5.53;;
20423;SDS011;10371;49.042;8.002;2024-01-07T01:40:25;6.07;;;5.47;;
20423;SDS011;10371;49.042;8.002;2024-01-07T01:41:26;5.73;;;5.23;;
20423;SDS011;10371;49.042;8.002;2024-01-07T01:42:26;5.60;;;5.10;;
20423;SDS011;10371;49.042;8.002;2024-01-07T01:43:27;6.50;;;5.73;;
20423;SDS011;10371;49.042;8.002;2024-01-07T01:44:28;6.20;;;5.60;;
20423;SDS011;10371;49.042;8.002;2024-01-07T01:45:28;5.73;;;5.23;;
20423;SDS011;10371;49.042;8.002;2024-01-07T01:46:29;5.53;;;5.03;;
20423;SDS011;10371;49.042;8.002;2024-01-07T01:47:29;5.77;;;5.27;;
20423;SDS011;10371;49.042;8.002;2024-01-07T01:48:30;5.60;;;5.10;;
20423;SDS011;10371;49.042;8.002;2024-01-07T01:49:31;5.70;;;5.10;;
20423;SDS011;10371;49.042;8.002;2024-01-07T01:50:32;7.87;;;5.37;;
20423;SDS011;10371;49.042;8.002;2024-01-07T01:51:32;5.93;;;5.33;;
20423;SDS011;10371;49.042;8.002;2024-01-07T01:52:33;6.50;;;5.67;;
20423;SDS011;10371;49.042;8.002;2024-01-07T01:53:35;7.30;;;6.10;;
20423;SDS011;10371;49.042;8.002;2024-01-07T01:54:36;6.47;;;5.87;;
20423;SDS011;10371;49.042;8.002;2024-01-07T01:55:36;5.80;;;5.30;;
20423;SDS011;10371;49.042;8.002;2024-01-07T01:56:37;5.70;;;5.10;;
20423;SDS011;10371;49.042;8.002;2024-01-07T01:57:38;6.30;;;5.53;;
20423;SDS011;10371;49.042;8.002;2024-01-07T01:58:39;5.80;;;5.30;;
20423;SDS011;10371;49.042;8.002;2024-01-07T01:59:40;6.23;;;5.67;;
20423;SDS011;10371;49.042;8.002;2024-01-07T02:00:42;5.90;;;5.40;;
20423;SDS011;10371;49.042;8.002;2024-01-07T02:01:44;5.80;;;5.30;;
20423;SDS011;10371;49.042;8.002;2024-01-07T02:02:44;6.17;;;5.57;;
20423;SDS011;10371;49.042;8.002;2024-01-07T02:03:45;6.00;;;5.50;;
20423;SDS011;10371;49.042;8.002;2024-01-07T02:04:46;5.80;;;5.30;;
20423;SDS011;10371;49.042;8.002;2024-01-07T02:05:48;5.93;;;5.43;;
20423;SDS011;10371;49.042;8.002;2024-01-07T02:06:48;6.23;;;5.63;;
20423;SDS011;10371;49.042;8.002;2024-01-07T02:07:48;5.83;;;5.27;;
20423;SDS011;10371;49.042;8.002;2024-01-07T02:08:49;6.23;;;5.50;;
20423;SDS011;10371;49.042;8.002;2024-01-07T02:09:50;6.30;;;5.70;;
20423;SDS011;10371;49.042;8.002;2024-01-07T02:10:50;6.60;;;5.90;;
20423;SDS011;10371;49.042;8.002;2024-01-07T02:12:11;6.50;;;5.80;;
20423;SDS011;10371;49.042;8.002;2024-01-07T02:13:11;5.70;;;5.20;;
20423;SDS011;10371;49.042;8.002;2024-01-07T02:14:12;6.80;;;6.20;;
20423;SDS011;10371;49.042;8.002;2024-01-07T02:15:12;6.70;;;6.10;;
20423;SDS011;10371;49.042;8.002;2024-01-07T02:16:12;6.90;;;6.07;;
20423;SDS011;10371;49.042;8.002;2024-01-07T02:17:12;6.70;;;6.00;;
20423;SDS011;10371;49.042;8.002;2024-01-07T02:18:13;6.80;;;6.10;;
20423;SDS011;10371;49.042;8.002;2024-01-07T02:19:14;6.77;;;6.00;;
20423;SDS011;10371;49.042;8.002;2024-01-07T02:20:14;6.53;;;5.93;;
20423;SDS011;10371;49.042;8.002;2024-01-07T02:21:15;6.97;;;6.00;;
20423;SDS011;10371;49.042;8.002;2024-01-07T02:22:16;6.47;;;5.87;;
20423;SDS011;10371;49.042;8.002;2024-01-07T02:23:16;6.60;;;6.00;;
20423;SDS011;10371;49.042;8.002;2024-01-07T02:24:16;6.17;;;5.57;;
20423;SDS011;10371;49.042;8.002;2024-01-07T02:25:17;6.53;;;5.93;;
20423;SDS011;10371;49.042;8.002;2024-01-07T02:26:17;7.57;;;6.43;;
20423;SDS011;10371;49.042;8.002;2024-01-07T02:27:18;6.20;;;5.60;;
20423;SDS011;10371;49.042;8.002;2024-01-07T02:28:18;7.00;;;6.40;;
20423;SDS011;10371;49.042;8.002;2024-01-07T02:29:19;7.13;;;6.43;;
20423;SDS011;10371;49.042;8.002;2024-01-07T02:30:19;6.43;;;5.80;;
20423;SDS011;10371;49.042;8.002;2024-01-07T02:31:19;7.07;;;6.37;;
20423;SDS011;10371;49.042;8.002;2024-01-07T02:32:19;7.83;;;7.03;;
20423;SDS011;10371;49.042;8.002;2024-01-07T02:33:20;7.47;;;6.70;;
20423;SDS011;10371;49.042;8.002;2024-01-07T02:34:20;7.50;;;6.80;;
20423;SDS011;10371;49.042;8.002;2024-01-07T02:35:26;7.50;;;6.90;;
20423;SDS011;10371;49.042;8.002;2024-01-07T02:36:26;7.13;;;6.43;;
20423;SDS011;10371;49.042;8.002;2024-01-07T02:37:27;7.73;;;6.93;;
20423;SDS011;10371;49.042;8.002;2024-01-07T02:38:27;7.60;;;6.80;;
20423;SDS011;10371;49.042;8.002;2024-01-07T02:39:27;7.30;;;6.60;;
20423;SDS011;10371;49.042;8.002;2024-01-07T02:40:27;8.33;;;7.00;;
20423;SDS011;10371;49.042;8.002;2024-01-07T02:41:28;8.33;;;7.43;;
20423;SDS011;10371;49.042;8.002;2024-01-07T02:42:28;8.30;;;7.50;;
20423;SDS011;10371;49.042;8.002;2024-01-07T02:43:28;7.73;;;6.90;;
20423;SDS011;10371;49.042;8.002;2024-01-07T02:44:28;6.80;;;6.13;;
20423;SDS011;10371;49.042;8.002;2024-01-07T02:45:29;8.17;;;7.30;;
20423;SDS011;10371;49.042;8.002;2024-01-07T02:46:29;8.03;;;7.23;;
20423;SDS011;10371;49.042;8.002;2024-01-07T02:47:30;8.00;;;7.20;;
20423;SDS011;10371;49.042;8.002;2024-01-07T02:48:31;7.00;;;6.30;;
20423;SDS011;10371;49.042;8.002;2024-01-07T02:49:31;6.87;;;6.27;;
20423;SDS011;10371;49.042;8.002;2024-01-07T02:50:32;7.07;;;6.37;;
20423;SDS011;10371;49.042;8.002;2024-01-07T02:51:32;6.93;;;5.97;;
20423;SDS011;10371;49.042;8.002;2024-01-07T02:52:33;6.93;;;5.83;;
20423;SDS011;10371;49.042;8.002;2024-01-07T02:53:33;6.80;;;6.03;;
20423;SDS011;10371;49.042;8.002;2024-01-07T02:54:33;6.23;;;5.63;;
20423;SDS011;10371;49.042;8.002;2024-01-07T02:55:33;6.57;;;5.97;;
20423;SDS011;10371;49.042;8.002;2024-01-07T02:56:34;6.80;;;5.97;;
20423;SDS011;10371;49.042;8.002;2024-01-07T02:57:34;5.87;;;5.37;;
20423;SDS011;10371;49.042;8.002;2024-01-07T02:58:35;6.83;;;6.17;;
20423;SDS011;10371;49.042;8.002;2024-01-07T02:59:35;6.37;;;5.63;;
20423;SDS011;10371;49.042;8.002;2024-01-07T03:00:35;6.57;;;5.97;;
20423;SDS011;10371;49.042;8.002;2024-01-07T03:01:35;6.27;;;5.67;;
20423;SDS011;10371;49.042;8.002;2024-01-07T03:02:40;6.10;;;5.60;;
20423;SDS011;10371;49.042;8.002;2024-01-07T03:03:40;6.43;;;5.83;;
20423;SDS011;10371;49.042;8.002;2024-01-07T03:04:40;5.80;;;5.30;;
20423;SDS011;10371;49.042;8.002;2024-01-07T03:05:40;6.13;;;5.53;;
20423;SDS011;10371;49.042;8.002;2024-01-07T03:06:41;6.80;;;5.77;;
20423;SDS011;10371;49.042;8.002;2024-01-07T03:07:41;6.13;;;5.53;;
20423;SDS011;10371;49.042;8.002;2024-01-07T03:08:42;5.70;;;5.20;;
20423;SDS011;10371;49.042;8.002;2024-01-07T03:09:43;5.43;;;4.93;;
20423;SDS011;10371;49.042;8.002;2024-01-07T03:10:43;5.57;;;5.07;;
20423;SDS011;10371;49.042;8.002;2024-01-07T03:11:43;5.30;;;4.80;;
20423;SDS011;10371;49.042;8.002;2024-01-07T03:12:44;6.00;;;5.40;;
20423;SDS011;10371;49.042;8.002;2024-01-07T03:13:44;6.33;;;5.43;;
20423;SDS011;10371;49.042;8.002;2024-01-07T03:14:44;6.30;;;5.37;;
20423;SDS011;10371;49.042;8.002;2024-01-07T03:15:45;6.57;;;5.77;;
20423;SDS011;10371;49.042;8.002;2024-01-07T03:16:45;5.43;;;4.87;;
20423;SDS011;10371;49.042;8.002;2024-01-07T03:17:45;6.20;;;5.60;;
20423;SDS011;10371;49.042;8.002;2024-01-07T03:18:46;5.87;;;5.27;;
20423;SDS011;10371;49.042;8.002;2024-01-07T03:19:46;4.93;;;4.53;;
20423;SDS011;10371;49.042;8.002;2024-01-07T03:20:46;5.13;;;4.73;;
20423;SDS011;10371;49.042;8.002;2024-01-07T03:21:47;5.63;;;5.03;;
20423;SDS011;10371;49.042;8.002;2024-01-07T03:22:48;5.40;;;4.90;;
20423;SDS011;10371;49.042;8.002;2024-01-07T03:23:49;5.90;;;5.33;;
20423;SDS011;10371;49.042;8.002;2024-01-07T03:24:50;5.33;;;4.83;;
20423;SDS011;10371;49.042;8.002;2024-01-07T03:25:50;5.60;;;5.10;;
20423;SDS011;10371;49.042;8.002;2024-01-07T03:26:50;5.07;;;4.67;;
20423;SDS011;10371;49.042;8.002;2024-01-07T03:27:51;5.63;;;5.13;;
20423;SDS011;10371;49.042;8.002;2024-01-07T03:28:51;6.03;;;5.27;;
20423;SDS011;10371;49.042;8.002;2024-01-07T03:29:51;5.93;;;5.40;;
20423;SDS011;10371;49.042;8.002;2024-01-07T03:30:51;5.80;;;5.30;;
20423;SDS011;10371;49.042;8.002;2024-01-07T03:31:52;5.57;;;5.00;;
20423;SDS011;10371;49.042;8.002;2024-01-07T03:32:52;5.57;;;5.07;;
20423;SDS011;10371;49.042;8.002;2024-01-07T03:33:53;5.73;;;5.23;;
20423;SDS011;10371;49.042;8.002;2024-01-07T03:34:53;5.87;;;5.27;;
20423;SDS011;10371;49.042;8.002;2024-01-07T03:35:54;5.73;;;5.10;;
20423;SDS011;10371;49.042;8.002;2024-01-07T03:36:54;5.80;;;5.30;;
20423;SDS011;10371;49.042;8.002;2024-01-07T03:37:54;5.30;;;4.80;;
20423;SDS011;10371;49.042;8.002;2024-01-07T03:38:54;4.87;;;4.43;;
20423;SDS011;10371;49.042;8.002;2024-01-07T03:39:55;5.30;;;4.80;;
20423;SDS011;10371;49.042;8.002;2024-01-07T03:40:55;5.50;;;5.00;;
20423;SDS011;10371;49.042;8.002;2024-01-07T03:41:55;5.80;;;5.20;;
20423;SDS011;10371;49.042;8.002;2024-01-07T03:42:56;5.77;;;5.27;;
20423;SDS011;10371;49.042;8.002;2024-01-07T03:43:56;5.37;;;4.87;;
20423;SDS011;10371;49.042;8.002;2024-01-07T03:44:56;5.70;;;5.20;;
20423;SDS011;10371;49.042;8.002;2024-01-07T03:45:57;7.13;;;5.10;;
20423;SDS011;10371;49.042;8.002;2024-01-07T03:46:57;5.87;;;5.37;;
20423;SDS011;10371;49.042;8.002;2024-01-07T03:47:58;5.37;;;4.87;;
20423;SDS011;10371;49.042;8.002;2024-01-07T03:48:58;5.97;;;5.40;;
20423;SDS011;10371;49.042;8.002;2024-01-07T03:49:58;5.13;;;4.63;;
20423;SDS011;10371;49.042;8.002;2024-01-07T03:50:58;5.33;;;4.83;;
20423;SDS011;10371;49.042;8.002;2024-01-07T03:51:59;5.30;;;4.80;;
20423;SDS011;10371;49.042;8.002;2024-01-07T03:52:59;5.60;;;5.10;;
20423;SDS011;10371;49.042;8.002;2024-01-07T03:53:59;5.77;;;4.93;;
20423;SDS011;10371;49.042;8.002;2024-01-07T03:54:59;5.50;;;5.00;;
20423;SDS011;10371;49.042;8.002;2024-01-07T03:56:00;5.70;;;4.97;;
20423;SDS011;10371;49.042;8.002;2024-01-07T03:57:00;5.30;;;4.80;;
20423;SDS011;10371;49.042;8.002;2024-01-07T03:58:01;5.50;;;5.00;;
20423;SDS011;10371;49.042;8.002;2024-01-07T03:59:01;5.07;;;4.67;;
20423;SDS011;10371;49.042;8.002;2024-01-07T04:00:02;5.60;;;5.10;;
20423;SDS011;10371;49.042;8.002;2024-01-07T04:01:04;5.10;;;4.60;;
20423;SDS011;10371;49.042;8.002;2024-01-07T04:02:06;5.20;;;4.70;;
20423;SDS011;10371;49.042;8.002;2024-01-07T04:03:06;4.77;;;4.37;;
20423;SDS011;10371;49.042;8.002;2024-01-07T04:04:06;5.47;;;4.97;;
20423;SDS011;10371;49.042;8.002;2024-01-07T04:05:07;5.20;;;4.80;;
20423;SDS011;10371;49.042;8.002;2024-01-07T04:06:07;5.23;;;4.73;;
20423;SDS011;10371;49.042;8.002;2024-01-07T04:07:08;5.07;;;4.60;;
20423;SDS011;10371;49.042;8.002;2024-01-07T04:08:11;4.83;;;4.40;;
20423;SDS011;10371;49.042;8.002;2024-01-07T04:09:12;4.70;;;4.30;;
20423;SDS011;10371;49.042;8.002;2024-01-07T04:10:12;4.77;;;4.37;;
20423;SDS011;10371;49.042;8.002;2024-01-07T04:11:12;4.90;;;4.50;;
20423;SDS011;10371;49.042;8.002;2024-01-07T04:12:13;4.57;;;4.17;;
20423;SDS011;10371;49.042;8.002;2024-01-07T04:13:13;5.03;;;4.53;;
20423;SDS011;10371;49.042;8.002;2024-01-07T04:14:14;4.93;;;4.53;;
20423;SDS011;10371;49.042;8.002;2024-01-07T04:15:15;5.70;;;5.10;;
20423;SDS011;10371;49.042;8.002;2024-01-07T04:16:16;5.30;;;4.90;;
20423;SDS011;10371;49.042;8.002;2024-01-07T04:17:17;4.63;;;4.23;;
20423;SDS011;10371;49.042;8.002;2024-01-07T04:18:17;5.10;;;4.60;;
20423;SDS011;10371;49.042;8.002;2024-01-07T04:19:18;4.70;;;4.30;;
20423;SDS011;10371;49.042;8.002;2024-01-07T04:20:18;4.60;;;4.20;;
20423;SDS011;10371;49.042;8.002;2024-01-07T04:21:18;5.47;;;4.80;;
20423;SDS011;10371;49.042;8.002;2024-01-07T04:22:19;5.47;;;4.97;;
20423;SDS011;10371;49.042;8.002;2024-01-07T04:23:19;5.63;;;5.07;;
20423;SDS011;10371;49.042;8.002;2024-01-07T04:24:19;5.47;;;4.97;;
20423;SDS011;10371;49.042;8.002;2024-01-07T04:25:19;4.87;;;4.43;;
20423;SDS011;10371;49.042;8.002;2024-01-07T04:26:20;5.27;;;4.77;;
20423;SDS011;10371;49.042;8.002;2024-01-07T04:27:20;5.03;;;4.63;;
20423;SDS011;10371;49.042;8.002;2024-01-07T04:28:20;5.53;;;4.87;;
20423;SDS011;10371;49.042;8.002;2024-01-07T04:29:20;4.93;;;4.53;;
20423;SDS011;10371;49.042;8.002;2024-01-07T04:30:21;5.47;;;4.87;;
20423;SDS011;10371;49.042;8.002;2024-01-07T04:31:21;4.97;;;4.57;;
20423;SDS011;10371;49.042;8.002;2024-01-07T04:32:21;5.23;;;4.40;;
20423;SDS011;10371;49.042;8.002;2024-01-07T04:33:21;5.30;;;4.80;;
20423;SDS011;10371;49.042;8.002;2024-01-07T04:34:22;5.73;;;5.13;;
20423;SDS011;10371;49.042;8.002;2024-01-07T04:35:22;5.10;;;4.70;;
20423;SDS011;10371;49.042;8.002;2024-01-07T04:36:23;4.93;;;4.43;;
20423;SDS011;10371;49.042;8.002;2024-01-07T04:37:23;4.97;;;4.57;;
20423;SDS011;10371;49.042;8.002;2024-01-07T04:38:24;5.27;;;4.77;;
20423;SDS011;10371;49.042;8.002;2024-01-07T04:39:24;5.53;;;5.03;;
20423;SDS011;10371;49.042;8.002;2024-01-07T04:40:25;5.10;;;4.70;;
20423;SDS011;10371;49.042;8.002;2024-01-07T04:41:25;5.60;;;5.10;;
20423;SDS011;10371;49.042;8.002;2024-01-07T04:42:25;5.50;;;5.07;;
20423;SDS011;10371;49.042;8.002;2024-01-07T04:43:25;6.33;;;5.73;;
20423;SDS011;10371;49.042;8.002;2024-01-07T04:44:26;5.97;;;5.47;;
20423;SDS011;10371;49.042;8.002;2024-01-07T04:45:26;5.77;;;5.27;;
20423;SDS011;10371;49.042;8.002;2024-01-07T04:46:26;5.87;;;5.23;;
20423;SDS011;10371;49.042;8.002;2024-01-07T04:48:27;6.17;;;5.20;;
20423;SDS011;10371;49.042;8.002;2024-01-07T04:49:28;4.93;;;4.53;;
20423;SDS011;10371;49.042;8.002;2024-01-07T04:50:28;5.50;;;5.00;;
20423;SDS011;10371;49.042;8.002;2024-01-07T04:51:28;5.30;;;4.70;;
20423;SDS011;10371;49.042;8.002;2024-01-07T04:52:28;4.80;;;4.40;;
20423;SDS011;10371;49.042;8.002;2024-01-07T04:53:29;5.43;;;4.93;;
20423;SDS011;10371;49.042;8.002;2024-01-07T04:54:29;6.47;;;5.27;;
20423;SDS011;10371;49.042;8.002;2024-01-07T04:55:29;4.97;;;4.47;;
20423;SDS011;10371;49.042;8.002;2024-01-07T04:56:30;5.03;;;4.63;;
20423;SDS011;10371;49.042;8.002;2024-01-07T04:57:30;5.13;;;4.63;;
20423;SDS011;10371;49.042;8.002;2024-01-07T04:58:30;5.40;;;4.93;;
20423;SDS011;10371;49.042;8.002;2024-01-07T04:59:31;5.50;;;5.03;;
20423;SDS011;10371;49.042;8.002;2024-01-07T05:00:31;5.87;;;5.27;;
20423;SDS011;10371;49.042;8.002;2024-01-07T05:01:34;5.57;;;5.07;;
20423;SDS011;10371;49.042;8.002;2024-01-07T05:02:35;5.90;;;5.40;;
20423;SDS011;10371;49.042;8.002;2024-01-07T05:03:35;5.10;;;4.70;;
20423;SDS011;10371;49.042;8.002;2024-01-07T05:04:35;5.10;;;4.60;;
20423;SDS011;10371;49.042;8.002;2024-01-07T05:05:36;5.23;;;4.77;;
20423;SDS011;10371;49.042;8.002;2024-01-07T05:06:38;5.93;;;5.43;;
20423;SDS011;10371;49.042;8.002;2024-01-07T05:07:38;5.60;;;5.10;;
20423;SDS011;10371;49.042;8.002;2024-01-07T05:08:40;6.40;;;5.80;;
20423;SDS011;10371;49.042;8.002;2024-01-07T05:09:41;6.03;;;5.43;;
20423;SDS011;10371;49.042;8.002;2024-01-07T05:10:41;5.97;;;5.47;;
20423;SDS011;10371;49.042;8.002;2024-01-07T05:11:41;5.87;;;5.37;;
20423;SDS011;10371;49.042;8.002;2024-01-07T05:12:41;6.27;;;5.70;;
20423;SDS011;10371;49.042;8.002;2024-01-07T05:13:42;6.37;;;5.77;;
20423;SDS011;10371;49.042;8.002;2024-01-07T05:14:42;6.23;;;5.63;;
20423;SDS011;10371;49.042;8.002;2024-01-07T05:15:46;6.30;;;5.70;;
20423;SDS011;10371;49.042;8.002;2024-01-07T05:16:53;6.23;;;5.70;;
20423;SDS011;10371;49.042;8.002;2024-01-07T05:17:54;6.43;;;5.83;;
20423;SDS011;10371;49.042;8.002;2024-01-07T05:18:54;6.60;;;5.90;;
20423;SDS011;10371;49.042;8.002;2024-01-07T05:19:55;6.43;;;5.77;;
20423;SDS011;10371;49.042;8.002;2024-01-07T05:20:55;6.60;;;6.00;;
20423;SDS011;10371;49.042;8.002;2024-01-07T05:21:55;6.30;;;5.70;;
20423;SDS011;10371;49.042;8.002;2024-01-07T05:22:56;6.43;;;5.83;;
20423;SDS011;10371;49.042;8.002;2024-01-07T05:23:56;6.27;;;5.73;;
20423;SDS011;10371;49.042;8.002;2024-01-07T05:24:57;6.57;;;5.97;;
20423;SDS011;10371;49.042;8.002;2024-01-07T05:25:59;6.23;;;5.63;;
20423;SDS011;10371;49.042;8.002;2024-01-07T05:26:59;6.30;;;5.70;;
20423;SDS011;10371;49.042;8.002;2024-01-07T05:28:00;6.50;;;5.90;;
20423;SDS011;10371;49.042;8.002;2024-01-07T05:29:00;7.10;;;6.40;;
20423;SDS011;10371;49.042;8.002;2024-01-07T05:30:00;6.97;;;6.27;;
20423;SDS011;10371;49.042;8.002;2024-01-07T05:31:01;7.00;;;6.33;;
20423;SDS011;10371;49.042;8.002;2024-01-07T05:32:01;6.77;;;6.07;;
20423;SDS011;10371;49.042;8.002;2024-01-07T05:33:02;6.50;;;5.90;;
20423;SDS011;10371;49.042;8.002;2024-01-07T05:34:03;6.30;;;5.70;;
20423;SDS011;10371;49.042;8.002;2024-01-07T05:35:03;6.27;;;5.70;;
20423;SDS011;10371;49.042;8.002;2024-01-07T05:36:04;6.40;;;5.80;;
20423;SDS011;10371;49.042;8.002;2024-01-07T05:37:04;6.90;;;6.20;;
20423;SDS011;10371;49.042;8.002;2024-01-07T05:38:04;6.87;;;6.27;;
20423;SDS011;10371;49.042;8.002;2024-01-07T05:39:05;6.37;;;5.77;;
20423;SDS011;10371;49.042;8.002;2024-01-07T05:40:06;6.30;;;5.70;;
20423;SDS011;10371;49.042;8.002;2024-01-07T05:41:07;6.90;;;6.20;;
20423;SDS011;10371;49.042;8.002;2024-01-07T05:42:07;6.20;;;5.60;;
20423;SDS011;10371;49.042;8.002;2024-01-07T05:43:08;6.27;;;5.77;;
20423;SDS011;10371;49.042;8.002;2024-01-07T05:44:08;6.10;;;5.20;;
20423;SDS011;10371;49.042;8.002;2024-01-07T05:45:09;5.50;;;5.00;;
20423;SDS011;10371;49.042;8.002;2024-01-07T05:46:09;5.87;;;5.37;;
20423;SDS011;10371;49.042;8.002;2024-01-07T05:47:11;6.13;;;5.53;;
20423;SDS011;10371;49.042;8.002;2024-01-07T05:48:12;6.13;;;5.53;;
20423;SDS011;10371;49.042;8.002;2024-01-07T05:49:12;5.40;;;4.90;;
20423;SDS011;10371;49.042;8.002;2024-01-07T05:50:12;5.60;;;5.10;;
20423;SDS011;10371;49.042;8.002;2024-01-07T05:51:15;5.40;;;4.90;;
20423;SDS011;10371;49.042;8.002;2024-01-07T05:52:16;5.43;;;4.93;;
20423;SDS011;10371;49.042;8.002;2024-01-07T05:53:17;6.00;;;5.40;;
20423;SDS011;10371;49.042;8.002;2024-01-07T05:54:17;5.50;;;5.00;;
20423;SDS011;10371;49.042;8.002;2024-01-07T05:55:17;4.97;;;4.57;;
20423;SDS011;10371;49.042;8.002;2024-01-07T05:56:17;5.40;;;4.90;;
20423;SDS011;10371;49.042;8.002;2024-01-07T05:57:18;4.73;;;4.33;;
20423;SDS011;10371;49.042;8.002;2024-01-07T05:58:18;5.10;;;4.67;;
20423;SDS011;10371;49.042;8.002;2024-01-07T05:59:18;5.40;;;4.90;;
20423;SDS011;10371;49.042;8.002;2024-01-07T06:00:19;5.37;;;4.87;;
20423;SDS011;10371;49.042;8.002;2024-01-07T06:01:19;5.30;;;4.80;;
20423;SDS011;10371;49.042;8.002;2024-01-07T06:02:20;5.07;;;4.67;;
20423;SDS011;10371;49.042;8.002;2024-01-07T06:03:22;5.40;;;4.90;;
20423;SDS011;10371;49.042;8.002;2024-01-07T06:04:23;4.90;;;4.50;;
20423;SDS011;10371;49.042;8.002;2024-01-07T06:05:24;5.47;;;4.97;;
20423;SDS011;10371;49.042;8.002;2024-01-07T06:06:24;5.17;;;4.67;;